Time;durP1;ratioP1;P1;durP2;ratioP2;P2;SDS_P1;SDS_P2;PMS_P1;PMS_P2;Temp;Humidity;BMP_temperature;BMP_pressure;BME280_temperature;BME280_humidity;BME280_pressure;Samples;Min_cycle;Max_cycle;Signal;HPM_P1;HPM_P2
2021/12/22 00:04:51;;;;;;;101.27;42.37;;;;;;;-3.87;85.64;99928.30;3994908;88;21083;-79
2021/12/22 00:10:53;;;;;;;101.03;41.90;;;;;;;-4.01;85.47;99927.14;3995292;87;21114;-80
2021/12/22 00:16:54;;;;;;;107.60;41.47;;;;;;;-4.00;85.80;99921.53;3991343;88;21081;-79
2021/12/22 00:22:55;;;;;;;104.00;41.20;;;;;;;-3.89;86.12;99924.54;3990685;88;21622;-79
2021/12/22 00:28:57;;;;;;;101.70;42.43;;;;;;;-3.85;86.10;99922.16;3995413;88;21014;-79
2021/12/22 00:34:59;;;;;;;108.73;41.73;;;;;;;-3.79;86.04;99934.50;3993505;88;21052;-80
2021/12/22 00:41:06;;;;;;;100.77;40.67;;;;;;;-3.84;86.16;99938.48;3993149;87;21081;-80
2021/12/22 00:47:09;;;;;;;102.47;43.13;;;;;;;-3.86;85.98;99944.61;3991913;88;21067;-79
2021/12/22 00:53:10;;;;;;;104.60;39.80;;;;;;;-3.94;85.83;99943.23;3993872;88;21119;-80
2021/12/22 00:59:12;;;;;;;101.00;41.83;;;;;;;-4.01;86.00;99942.63;3993654;88;21114;-79
2021/12/22 01:05:16;;;;;;;96.80;41.00;;;;;;;-3.94;86.13;99937.06;3991720;88;21077;-80
2021/12/22 01:11:18;;;;;;;100.57;40.80;;;;;;;-3.88;86.18;99953.41;3992058;88;21082;-79
2021/12/22 01:17:20;;;;;;;93.00;37.50;;;;;;;-3.88;85.97;99963.59;3991625;88;21422;-80
2021/12/22 01:23:22;;;;;;;89.00;38.17;;;;;;;-3.94;85.72;99953.92;3992471;88;21077;-79
2021/12/22 01:29:24;;;;;;;96.40;39.13;;;;;;;-4.00;85.87;99963.50;3991643;88;21167;-79
2021/12/22 01:35:30;;;;;;;106.70;40.37;;;;;;;-4.02;85.98;99962.42;3991798;88;21068;-80
2021/12/22 01:41:32;;;;;;;95.00;39.03;;;;;;;-4.08;85.92;99971.48;3992803;88;21124;-79
2021/12/22 02:07:11;;;;;;;92.50;37.33;;;;;;;-3.94;86.19;99972.65;3992495;88;21588;-80
2021/12/22 02:13:16;;;;;;;99.97;40.00;;;;;;;-3.88;86.35;99969.47;3992016;88;21093;-80
2021/12/22 02:26:30;;;;;;;102.33;42.30;;;;;;;-3.80;86.44;99960.44;3992558;88;21066;-79
2021/12/22 02:39:17;;;;;;;97.27;36.63;;;;;;;-3.76;86.09;99950.03;3989082;87;21079;-79
2021/12/22 02:45:20;;;;;;;95.57;34.67;;;;;;;-3.79;86.44;99958.03;4011290;87;21075;-79
2021/12/22 02:51:23;;;;;;;81.07;34.40;;;;;;;-3.76;86.39;99962.86;4015759;87;21046;-79
2021/12/22 02:57:31;;;;;;;77.53;33.20;;;;;;;-3.81;86.30;99957.50;4013196;87;21098;-80
2021/12/22 03:09:37;;;;;;;81.17;35.13;;;;;;;-3.74;86.61;99955.91;4012029;87;21144;-79
2021/12/22 03:15:39;;;;;;;81.37;33.03;;;;;;;-3.71;86.53;99960.77;4012340;87;21119;-79
2021/12/22 03:21:42;;;;;;;82.30;34.47;;;;;;;-3.68;86.50;99959.70;4010154;87;21049;-79
2021/12/22 03:27:49;;;;;;;90.07;36.13;;;;;;;-3.66;86.73;99952.75;4013757;87;21081;-79
2021/12/22 03:33:53;;;;;;;83.70;33.27;;;;;;;-3.64;86.85;99953.30;4023614;87;21076;-79
2021/12/22 03:46:39;;;;;;;69.70;28.50;;;;;;;-3.60;86.72;99958.40;3873757;90;21889;-79
2021/12/22 03:52:41;;;;;;;71.53;30.23;;;;;;;-3.58;86.50;99963.78;4017686;87;21029;-79
2021/12/22 03:58:42;;;;;;;73.23;28.63;;;;;;;-3.58;86.62;99969.66;3993321;87;21687;-79
2021/12/22 04:04:46;;;;;;;72.13;29.90;;;;;;;-3.61;86.60;99972.86;3991836;88;21022;-78
2021/12/22 04:10:50;;;;;;;64.47;29.60;;;;;;;-3.51;86.80;99967.57;4004327;87;21146;-78
2021/12/22 04:16:51;;;;;;;62.30;27.77;;;;;;;-3.41;86.78;99966.27;3962428;88;22044;-80
2021/12/22 04:22:52;;;;;;;67.13;28.83;;;;;;;-3.30;86.72;99967.92;4004876;87;21056;-80
2021/12/22 04:28:54;;;;;;;72.57;29.37;;;;;;;-3.29;86.74;99968.22;3985376;87;73797;-79
2021/12/22 04:34:55;;;;;;;68.63;29.27;;;;;;;-3.27;86.76;99981.60;4061796;85;21075;-80
2021/12/22 04:40:56;;;;;;;65.30;28.00;;;;;;;-3.28;86.91;99989.38;4056721;86;30490;-79
2021/12/22 04:46:59;;;;;;;62.70;27.73;;;;;;;-3.30;86.93;99981.31;3894847;90;21089;-80
2021/12/22 04:53:09;;;;;;;58.73;28.13;;;;;;;-3.36;87.00;99985.03;3904410;90;21081;-79
2021/12/22 04:59:04;;;;;;;64.33;29.53;;;;;;;-3.31;87.43;99985.87;3898829;90;21561;-79
2021/12/22 05:05:07;;;;;;;61.20;26.93;;;;;;;-3.24;87.71;99994.99;3913663;89;21104;-79
2021/12/22 05:11:09;;;;;;;62.80;28.77;;;;;;;-3.31;87.49;99986.41;3900327;89;21069;-79
2021/12/22 05:17:18;;;;;;;69.90;30.23;;;;;;;-3.43;87.90;99987.94;3898635;90;21110;-79
2021/12/22 05:23:13;;;;;;;74.40;32.47;;;;;;;-3.39;88.08;99986.90;3898383;89;21164;-80
2021/12/22 05:29:16;;;;;;;76.63;33.60;;;;;;;-3.34;88.37;99990.95;3900648;89;21081;-79
2021/12/22 05:35:17;;;;;;;81.83;35.87;;;;;;;-3.40;88.14;100009.39;3912814;90;21037;-79
2021/12/22 05:41:18;;;;;;;83.33;34.30;;;;;;;-3.57;88.08;100004.19;3902675;89;21384;-80
2021/12/22 05:47:20;;;;;;;93.37;41.37;;;;;;;-3.60;88.58;100004.70;3907036;90;21115;-80
2021/12/22 05:53:21;;;;;;;86.57;39.23;;;;;;;-3.61;88.52;100007.13;3923649;88;21109;-79
2021/12/22 05:59:22;;;;;;;86.77;37.83;;;;;;;-3.65;88.81;100011.92;3911144;90;21146;-81
2021/12/22 06:05:25;;;;;;;85.63;37.33;;;;;;;-3.60;88.86;100029.31;3924344;89;21070;-80
2021/12/22 06:11:26;;;;;;;88.00;37.83;;;;;;;-3.62;88.96;100035.48;3910037;90;22241;-81
2021/12/22 06:17:27;;;;;;;93.90;38.00;;;;;;;-3.64;89.00;100039.75;3848012;91;21184;-80
2021/12/22 06:23:28;;;;;;;91.57;38.00;;;;;;;-3.64;89.17;100050.98;3923178;89;21061;-80
2021/12/22 06:29:30;;;;;;;92.97;39.73;;;;;;;-3.65;89.20;100053.39;3892273;90;21170;-80
2021/12/22 06:35:32;;;;;;;100.07;42.20;;;;;;;-3.67;89.25;100062.20;3884017;90;21603;-80
2021/12/22 06:41:34;;;;;;;117.00;46.17;;;;;;;-3.68;89.37;100064.61;3901804;90;21090;-80
2021/12/22 06:47:36;;;;;;;108.67;45.70;;;;;;;-3.68;89.20;100076.66;3894724;89;21772;-80
2021/12/22 06:53:37;;;;;;;117.20;47.77;;;;;;;-3.70;89.50;100080.11;3910465;89;21615;-80
2021/12/22 06:59:52;;;;;;;120.70;46.77;;;;;;;-3.70;89.43;100093.49;3912417;90;21981;-80
2021/12/22 07:05:54;;;;;;;114.37;48.50;;;;;;;-3.71;89.62;100096.69;3908003;89;21168;-80
2021/12/22 07:11:55;;;;;;;110.93;46.70;;;;;;;-3.66;89.67;100095.39;3908275;90;21046;-80
2021/12/22 07:17:57;;;;;;;129.77;50.50;;;;;;;-3.63;89.76;100106.11;3910914;90;21097;-80
2021/12/22 07:24:00;;;;;;;122.80;52.90;;;;;;;-3.57;89.88;100111.25;3911925;90;21066;-81
2021/12/22 07:30:03;;;;;;;120.33;51.57;;;;;;;-3.48;89.86;100117.73;3908784;89;21565;-80
2021/12/22 07:36:06;;;;;;;121.50;52.67;;;;;;;-3.36;90.00;100122.92;3907045;90;21074;-82
2021/12/22 07:42:07;;;;;;;119.53;51.53;;;;;;;-3.26;90.02;100129.70;3910846;89;21117;-81
2021/12/22 07:48:08;;;;;;;122.17;51.20;;;;;;;-3.22;89.94;100136.95;3893825;89;21812;-81
2021/12/22 07:54:10;;;;;;;120.90;52.07;;;;;;;-3.16;90.07;100142.35;3862531;90;21135;-81
2021/12/22 08:00:13;;;;;;;119.03;51.63;;;;;;;-3.09;90.16;100145.59;3866882;90;21570;-80
2021/12/22 08:06:14;;;;;;;110.10;48.50;;;;;;;-2.99;90.21;100143.00;3862668;90;21126;-80
2021/12/22 08:12:15;;;;;;;128.30;52.70;;;;;;;-2.95;89.95;100151.59;3870824;90;21090;-80
2021/12/22 08:18:17;;;;;;;125.53;51.90;;;;;;;-2.89;90.01;100159.11;3864562;90;22128;-80
2021/12/22 08:24:19;;;;;;;128.83;55.73;;;;;;;-2.83;89.91;100152.71;3869180;90;21081;-80
2021/12/22 08:30:20;;;;;;;130.50;55.60;;;;;;;-2.76;89.78;100147.94;3866381;90;21098;-80
2021/12/22 08:42:49;;;;;;;134.93;58.33;;;;;;;-2.64;89.99;100161.93;3866444;90;21059;-80
2021/12/22 08:48:52;;;;;;;128.33;54.57;;;;;;;-2.63;89.75;100171.61;3866522;89;21569;-80
2021/12/22 08:54:53;;;;;;;129.13;54.87;;;;;;;-2.60;89.85;100168.41;3861032;90;21163;-81
2021/12/22 09:08:00;;;;;;;114.97;48.37;;;;;;;-2.36;89.60;100172.24;3867402;90;21110;-80
2021/12/22 09:20:29;;;;;;;128.37;54.83;;;;;;;-2.37;89.86;100182.70;3873426;90;21105;-81
2021/12/22 09:26:31;;;;;;;117.17;47.10;;;;;;;-2.33;89.76;100187.28;3891988;90;21094;-82
2021/12/22 09:32:33;;;;;;;87.93;38.50;;;;;;;-2.32;89.33;100193.47;3887163;90;21136;-81
2021/12/22 09:45:48;;;;;;;92.63;41.10;;;;;;;-2.01;89.41;100190.64;3886825;90;21218;-81
2021/12/22 09:58:14;;;;;;;74.07;34.87;;;;;;;-1.86;88.87;100182.61;3882607;89;21138;-81
2021/12/22 10:04:16;;;;;;;74.90;33.17;;;;;;;-1.78;88.54;100174.56;3883646;89;21094;-81
2021/12/22 10:10:18;;;;;;;62.15;30.05;;;;;;;-1.57;88.69;100176.75;3877527;89;21078;-82
2021/12/22 10:16:26;;;;;;;71.95;29.72;;;;;;;-0.81;89.06;100179.66;3882067;90;21161;-81
2021/12/22 10:22:40;;;;;;;51.13;22.90;;;;;;;-0.51;87.84;100179.06;3878227;90;21049;-83
2021/12/22 10:28:59;;;;;;;76.95;33.48;;;;;;;-0.61;86.57;100179.64;3874665;89;21081;-82
2021/12/22 10:35:06;;;;;;;81.50;38.53;;;;;;;-0.67;86.21;100176.14;3884904;89;21030;-82
2021/12/22 10:41:10;;;;;;;;;;;;;;;-0.88;86.62;100175.94;3892126;89;21031;-84
2021/12/22 10:54:11;;;;;;;88.07;39.48;;;;;;;-1.00;86.73;100159.83;3905824;89;21129;-80
2021/12/22 11:00:26;;;;;;;77.67;37.42;;;;;;;-0.93;86.46;100153.62;3920243;89;21152;-84
2021/12/22 11:06:32;;;;;;;93.00;40.28;;;;;;;-1.01;86.33;100148.26;3947633;89;21908;-82
2021/12/22 11:12:39;;;;;;;101.50;45.10;;;;;;;-0.88;86.62;100159.80;3923538;90;21076;-81
2021/12/22 11:18:41;;;;;;;74.92;36.03;;;;;;;-0.78;86.43;100157.08;3913903;89;21141;-81
2021/12/22 11:24:53;;;;;;;93.40;40.45;;;;;;;-0.79;86.32;100151.97;3914277;89;21105;-82
2021/12/22 11:30:56;;;;;;;80.40;36.05;;;;;;;-0.83;86.32;100139.61;3912420;89;21081;-82
2021/12/22 11:37:00;;;;;;;78.67;37.73;;;;;;;-0.83;85.88;100142.85;3915586;89;21108;-82
2021/12/22 11:43:03;;;;;;;91.35;41.20;;;;;;;-0.83;85.70;100135.57;3943015;89;76539;-82
2021/12/22 11:49:05;;;;;;;104.45;46.15;;;;;;;-0.83;85.70;100135.57;3951042;88;21138;-81
2021/12/22 11:55:30;;;;;;;99.47;42.55;;;;;;;-0.91;85.63;100132.09;3884416;89;21127;-81
2021/12/22 12:01:32;;;;;;;86.32;37.40;;;;;;;-0.96;85.90;100129.44;3867639;91;21643;-82
2021/12/22 12:07:48;;;;;;;75.30;33.48;;;;;;;-1.00;85.76;100123.55;3846483;91;21730;-82
2021/12/22 12:13:55;;;;;;;69.75;31.00;;;;;;;-1.07;85.37;100124.34;3876650;90;21115;-82
2021/12/22 12:26:17;;;;;;;41.42;18.80;;;;;;;-1.10;84.57;100116.30;3772146;91;21728;-81
2021/12/22 12:32:44;;;;;;;41.48;21.42;;;;;;;-1.18;84.06;100114.16;3920653;89;21614;-82
2021/12/22 12:38:50;;;;;;;;;;;;;;;-1.07;84.30;100117.09;3908497;90;21091;-82
2021/12/22 12:44:52;;;;;;;38.58;16.77;;;;;;;-0.93;84.33;100120.83;3917583;89;20171;-81
2021/12/22 12:51:14;;;;;;;25.88;11.93;;;;;;;-1.00;83.79;100124.89;3919214;89;21076;-82
2021/12/22 12:57:23;;;;;;;28.90;12.55;;;;;;;-1.25;83.23;100132.42;3901702;89;21139;-82
2021/12/22 13:03:24;;;;;;;23.45;11.18;;;;;;;-1.25;83.23;100132.42;3889258;90;21073;-82
2021/12/22 13:09:42;;;;;;;30.43;14.30;;;;;;;-1.23;82.88;100127.59;3907654;89;22331;-83
2021/12/22 13:15:46;;;;;;;33.45;16.32;;;;;;;-1.28;82.60;100133.53;3881794;89;21105;-84
2021/12/22 13:21:47;;;;;;;40.63;17.50;;;;;;;-1.35;82.96;100134.33;3888057;89;21056;-83
2021/12/22 13:27:59;;;;;;;36.73;17.15;;;;;;;-1.35;82.96;100134.33;3898383;90;22233;-84
2021/12/22 13:34:02;;;;;;;37.48;17.27;;;;;;;-1.45;83.02;100139.16;3858046;91;21100;-83
2021/12/22 13:40:12;;;;;;;44.85;18.98;;;;;;;-1.45;83.02;100139.16;3920106;90;21104;-83
2021/12/22 13:46:27;;;;;;;38.95;15.90;;;;;;;-1.53;82.80;100130.85;3900698;89;21160;-83
2021/12/22 13:52:29;;;;;;;37.40;17.60;;;;;;;-1.53;82.80;100130.85;3914222;89;21107;-83
2021/12/22 13:58:44;;;;;;;46.92;20.72;;;;;;;-1.58;82.52;100136.22;3918621;89;21143;-83
2021/12/22 14:04:46;;;;;;;40.07;18.33;;;;;;;-1.68;82.72;100148.53;3908928;90;21131;-84
2021/12/22 14:10:47;;;;;;;40.77;18.40;;;;;;;-1.80;82.06;100154.70;3915646;89;21063;-83
2021/12/22 14:16:49;;;;;;;39.10;19.93;;;;;;;-1.83;82.62;100162.47;3911390;89;21797;-82
2021/12/22 14:23:03;;;;;;;46.93;20.80;;;;;;;-1.87;82.50;100150.67;3916762;89;21125;-83
2021/12/22 14:29:07;;;;;;;47.63;19.20;;;;;;;-1.87;82.65;100150.14;4023306;87;21065;-84
2021/12/22 14:35:14;;;;;;;58.10;26.23;;;;;;;-1.87;82.55;100149.33;4004616;88;21079;-83
2021/12/22 14:41:16;;;;;;;47.93;21.73;;;;;;;-1.97;82.26;100144.74;3997966;87;21082;-83
2021/12/22 14:47:21;;;;;;;31.93;15.70;;;;;;;-2.05;82.27;100146.59;4008724;87;21067;-83
2021/12/22 14:53:34;;;;;;;38.33;16.83;;;;;;;-2.10;81.86;100153.84;4026416;87;21097;-82
2021/12/22 14:59:35;;;;;;;44.97;17.10;;;;;;;-2.17;81.85;100155.43;4046229;86;21089;-82
2021/12/22 15:05:37;;;;;;;40.30;19.20;;;;;;;-2.22;82.12;100155.41;4047431;86;21045;-83
2021/12/22 15:11:38;;;;;;;49.30;18.20;;;;;;;-2.32;82.20;100145.19;4054674;86;21097;-82
2021/12/22 15:17:39;;;;;;;45.70;20.17;;;;;;;-2.42;81.99;100141.94;4042023;86;21074;-82
2021/12/22 15:23:40;;;;;;;47.80;20.87;;;;;;;-2.53;82.49;100134.10;4035405;87;21495;-82
2021/12/22 15:29:42;;;;;;;37.87;17.70;;;;;;;-2.60;82.38;100141.04;4066847;86;21632;-82
2021/12/22 15:35:43;;;;;;;37.10;17.07;;;;;;;-2.71;82.28;100134.02;4034748;86;21073;-82
2021/12/22 15:41:52;;;;;;;38.93;17.77;;;;;;;-2.90;82.14;100128.03;4058461;86;21070;-82
2021/12/22 15:47:56;;;;;;;41.97;18.17;;;;;;;-3.13;82.02;100131.13;4066509;86;21031;-81
2021/12/22 15:53:57;;;;;;;48.30;22.03;;;;;;;-3.23;81.98;100139.34;4034819;86;21065;-81
2021/12/22 15:59:58;;;;;;;56.20;24.03;;;;;;;-3.33;81.76;100145.98;3996555;88;21732;-81
2021/12/22 16:06:00;;;;;;;53.80;22.53;;;;;;;-3.36;81.65;100131.77;3987488;88;22142;-81
2021/12/22 16:12:04;;;;;;;62.30;26.47;;;;;;;-3.43;82.00;100143.21;3899815;89;22612;-81
2021/12/22 16:18:07;;;;;;;88.83;36.63;;;;;;;-3.57;81.55;100146.59;3903153;89;21082;-81
2021/12/22 16:24:09;;;;;;;80.30;32.90;;;;;;;-3.70;81.65;100149.16;3885808;90;21059;-81
2021/12/22 16:30:10;;;;;;;69.50;30.10;;;;;;;-3.75;81.76;100154.98;3921413;88;21067;-80
2021/12/22 16:36:12;;;;;;;88.33;38.70;;;;;;;-3.88;82.06;100152.19;3892995;89;21190;-80
2021/12/22 16:42:13;;;;;;;83.87;34.87;;;;;;;-4.10;81.44;100161.34;3896825;90;21033;-80
2021/12/22 16:48:14;;;;;;;78.10;34.67;;;;;;;-4.38;81.48;100154.33;3972159;87;21104;-80
2021/12/22 16:54:16;;;;;;;92.37;38.50;;;;;;;-4.53;81.68;100157.34;3976458;87;22223;-80
2021/12/22 17:00:17;;;;;;;104.97;44.80;;;;;;;-4.73;81.76;100154.42;3976940;87;21041;-80
2021/12/22 17:06:20;;;;;;;124.63;50.93;;;;;;;-4.87;81.88;100153.44;3970469;88;21024;-79
2021/12/22 17:12:21;;;;;;;127.60;54.00;;;;;;;-4.97;81.96;100155.17;3974012;88;21029;-80
2021/12/22 17:18:23;;;;;;;136.77;56.90;;;;;;;-5.21;81.84;100147.88;3959820;88;21180;-79
2021/12/22 17:24:24;;;;;;;123.50;50.67;;;;;;;-5.45;82.04;100146.44;3966517;88;21109;-79
2021/12/22 17:30:28;;;;;;;137.67;51.30;;;;;;;-5.60;82.31;100142.20;3977508;87;21052;-79
2021/12/22 17:36:30;;;;;;;125.67;50.77;;;;;;;-5.72;82.47;100146.00;3984232;88;21074;-79
2021/12/22 17:42:31;;;;;;;148.00;52.83;;;;;;;-5.74;82.56;100146.23;3978854;87;21104;-80
2021/12/22 17:48:32;;;;;;;131.57;52.53;;;;;;;-5.85;82.33;100147.15;3965030;87;21096;-79
2021/12/22 17:54:34;;;;;;;134.80;52.00;;;;;;;-5.91;82.76;100141.45;3992070;87;21592;-79
2021/12/22 18:00:39;;;;;;;128.13;48.87;;;;;;;-6.01;82.36;100135.92;4042305;87;21223;-81
2021/12/22 18:06:46;;;;;;;123.73;49.13;;;;;;;-6.12;82.43;100132.00;4046240;86;21033;-79
2021/12/22 18:12:43;;;;;;;130.97;49.07;;;;;;;-6.24;82.48;100118.72;4038385;86;21582;-78
2021/12/22 18:18:45;;;;;;;131.27;50.13;;;;;;;-6.31;82.73;100118.59;4044764;86;21142;-79
2021/12/22 18:24:46;;;;;;;122.03;48.57;;;;;;;-6.44;82.40;100127.67;4049991;86;21041;-79
2021/12/22 18:30:48;;;;;;;127.90;47.90;;;;;;;-6.45;83.08;100123.92;3937123;88;21141;-78
2021/12/22 18:36:55;;;;;;;110.13;43.30;;;;;;;-6.20;83.98;100119.84;3992910;89;21069;-79
2021/12/22 18:42:53;;;;;;;133.10;51.20;;;;;;;-6.16;83.22;100117.52;3992456;87;21126;-78
2021/12/22 18:48:57;;;;;;;164.80;62.53;;;;;;;-6.24;83.14;100113.39;3941610;88;21051;-79
2021/12/22 18:54:58;;;;;;;196.17;75.87;;;;;;;-6.32;83.29;100115.11;3902777;89;21108;-80
2021/12/22 19:01:00;;;;;;;179.17;69.80;;;;;;;-6.22;83.98;100113.97;3868391;91;21137;-78
2021/12/22 19:07:02;;;;;;;188.50;71.63;;;;;;;-6.16;83.63;100109.53;3879199;90;21057;-78
2021/12/22 19:13:03;;;;;;;181.83;78.80;;;;;;;-6.28;83.82;100114.93;3868861;91;21147;-81
2021/12/22 19:19:06;;;;;;;188.67;78.90;;;;;;;-6.40;83.64;100109.37;3863982;91;21123;-79
2021/12/22 19:25:09;;;;;;;152.40;65.73;;;;;;;-6.37;84.30;100108.89;3872624;90;21595;-79
2021/12/22 19:31:10;;;;;;;161.30;66.33;;;;;;;-6.43;84.13;100101.83;3879377;90;22013;-79
2021/12/22 19:37:11;;;;;;;148.00;63.03;;;;;;;-6.50;84.33;100099.33;3912474;89;21113;-79
2021/12/22 19:43:13;;;;;;;159.47;64.97;;;;;;;-6.57;84.68;100102.13;3873280;90;21070;-79
2021/12/22 19:49:14;;;;;;;171.00;68.23;;;;;;;-6.49;85.23;100096.94;3923706;89;21048;-79
2021/12/22 19:55:18;;;;;;;315.57;102.37;;;;;;;-6.25;85.41;100094.98;3885602;90;21576;-79
2021/12/22 20:01:20;;;;;;;145.93;62.30;;;;;;;-6.17;84.93;100098.05;3900433;89;21127;-79
2021/12/22 20:07:22;;;;;;;196.43;77.70;;;;;;;-6.07;85.32;100098.23;4000370;88;21133;-79
2021/12/22 20:13:23;;;;;;;289.20;100.30;;;;;;;-6.10;85.03;100093.39;4003423;87;21111;-80
2021/12/22 20:19:26;;;;;;;316.87;109.40;;;;;;;-6.16;84.95;100091.69;4010151;87;21597;-79
2021/12/22 20:25:27;;;;;;;326.67;107.00;;;;;;;-6.19;85.15;100086.84;4002484;87;21498;-79
2021/12/22 20:31:32;;;;;;;280.83;99.43;;;;;;;-6.09;85.33;100080.87;4001666;87;21034;-79
2021/12/22 20:37:33;;;;;;;296.47;101.80;;;;;;;-6.20;84.93;100069.76;3989394;87;21453;-78
2021/12/22 20:43:35;;;;;;;244.23;92.10;;;;;;;-6.22;85.40;100070.52;3993657;87;21020;-79
2021/12/22 20:49:36;;;;;;;277.67;94.47;;;;;;;-6.25;85.21;100068.33;3997592;87;21883;-79
2021/12/22 20:55:38;;;;;;;288.23;97.37;;;;;;;-6.38;85.05;100059.30;4036259;86;21058;-79
2021/12/22 21:01:41;;;;;;;292.87;102.23;;;;;;;-6.47;85.18;100051.69;4060175;86;21037;-79
2021/12/22 21:07:43;;;;;;;315.70;101.17;;;;;;;-6.53;85.16;100043.87;4051591;86;21109;-79
2021/12/22 21:13:46;;;;;;;318.50;104.67;;;;;;;-6.66;85.20;100045.48;4027248;86;21071;-79
2021/12/22 21:19:47;;;;;;;286.30;96.37;;;;;;;-6.72;85.30;100041.89;4054739;86;21097;-79
2021/12/22 21:25:49;;;;;;;307.63;105.80;;;;;;;-6.82;85.26;100039.06;3943313;88;21630;-79
2021/12/22 21:31:53;;;;;;;285.00;101.00;;;;;;;-6.75;85.54;100038.38;4036198;87;21070;-79
2021/12/22 21:37:54;;;;;;;236.93;89.23;;;;;;;-6.85;85.41;100039.53;4042664;86;21056;-80
2021/12/22 21:43:56;;;;;;;237.83;91.60;;;;;;;-6.95;85.53;100026.53;4029486;86;22073;-79
2021/12/22 21:49:57;;;;;;;255.63;95.00;;;;;;;-6.93;85.89;100021.27;4039817;87;22271;-79
2021/12/22 21:55:58;;;;;;;238.10;94.33;;;;;;;-6.95;85.51;100023.87;4046192;86;21062;-79
2021/12/22 22:02:01;;;;;;;199.30;77.80;;;;;;;-7.00;85.42;100017.92;4053840;86;21519;-79
2021/12/22 22:08:03;;;;;;;180.50;71.73;;;;;;;-7.20;85.24;100019.38;4052903;86;21133;-79
2021/12/22 22:14:04;;;;;;;194.83;72.97;;;;;;;-7.30;85.23;100012.53;4055637;86;21034;-78
2021/12/22 22:20:09;;;;;;;236.60;88.57;;;;;;;-7.43;85.38;100004.80;4042867;87;21056;-78
2021/12/22 22:26:13;;;;;;;237.88;85.10;;;;;;;-7.45;85.37;99997.56;4041545;87;21057;-79
2021/12/22 22:32:16;;;;;;;174.37;65.70;;;;;;;-7.52;85.75;99995.05;4033406;86;21549;-78
2021/12/22 22:38:18;;;;;;;206.90;77.13;;;;;;;-7.65;85.82;99999.28;4040658;86;21991;-78
2021/12/22 22:44:21;;;;;;;231.20;90.13;;;;;;;-7.67;85.57;99993.92;4044850;86;21164;-78
2021/12/22 22:50:23;;;;;;;241.00;87.37;;;;;;;-7.76;85.60;99992.13;3978435;88;21067;-79
2021/12/22 22:56:24;;;;;;;203.40;80.53;;;;;;;-7.72;85.65;99999.13;4006298;87;21137;-78
2021/12/22 23:02:26;;;;;;;193.07;75.40;;;;;;;-7.70;85.93;99987.75;3942060;90;21685;-78
2021/12/22 23:08:27;;;;;;;189.87;77.13;;;;;;;-7.72;85.85;99983.17;3936605;90;21132;-79
2021/12/22 23:14:29;;;;;;;221.13;80.97;;;;;;;-7.58;86.65;99972.58;3937838;89;22263;-78
2021/12/22 23:20:34;;;;;;;211.07;80.60;;;;;;;-7.37;87.03;99974.09;3938608;90;21093;-78
2021/12/22 23:26:35;;;;;;;208.15;83.60;;;;;;;-7.31;86.25;99967.03;3933943;89;21103;-78
2021/12/22 23:32:37;;;;;;;230.97;90.63;;;;;;;-7.39;85.96;99960.74;3939223;89;21099;-78
2021/12/22 23:50:42;;;;;;;272.27;99.23;;;;;;;-7.26;86.39;99936.00;3943217;89;21524;-78
2021/12/22 23:56:44;;;;;;;264.20;101.30;;;;;;;-7.28;86.36;99934.63;3886877;90;21111;-78
